Terminal Aerodrome Forecast
Issued by NWS Charleston, WV

Current Version | Previous Version | Graphics & Text | Print | Product List | Glossary On
Versions: 1 2 3 4 5 6 7 8 9 10 11 12 13 14 15 16 17 18 19 20 21 22
573
FTUS41 KRLX 071135 AAC
TAFCRW
TAF AMD
KCRW 071135Z 0712/0812 25004KT P6SM BKN035
      TEMPO 0712/0716 BKN015 OVC025
     FM071900 VRB03KT P6SM BKN120
     FM072100 00000KT P6SM SCT110
     FM080500 00000KT P6SM BKN100=

USA.gov is the U.S. government's official web portal to all federal, state and local government web resources and services.